Time;durP1;ratioP1;P1;durP2;ratioP2;P2;SDS_P1;SDS_P2;PMS_P1;PMS_P2;Temp;Humidity;BMP_temperature;BMP_pressure;BME280_temperature;BME280_humidity;BME280_pressure;Samples;Min_cycle;Max_cycle;Signal;HPM_P1;HPM_P2
2023/01/27 00:00:49;;;;;;;40.77;13.83;;;;;;;1.49;100.00;101527.06;5031671;28;20202;-79
2023/01/27 00:03:15;;;;;;;37.40;13.27;;;;;;;1.50;100.00;101517.41;5031881;28;20218;-80
2023/01/27 00:05:41;;;;;;;40.47;14.60;;;;;;;1.50;100.00;101513.03;5032183;28;20230;-80
2023/01/27 00:08:08;;;;;;;37.27;12.53;;;;;;;1.52;100.00;101515.66;5032127;28;20647;-80
2023/01/27 00:10:35;;;;;;;34.87;12.77;;;;;;;1.52;100.00;101521.78;5031898;28;20590;-80
2023/01/27 00:15:46;;;;;;;32.40;12.13;;;;;;;1.52;100.00;101500.78;5031930;28;20233;-80
2023/01/27 00:18:13;;;;;;;32.73;11.70;;;;;;;1.52;100.00;101502.53;5031925;28;20229;-79
2023/01/27 00:26:13;;;;;;;36.57;12.77;;;;;;;1.55;100.00;101505.13;5031925;28;20709;-79
2023/01/27 00:28:42;;;;;;;24.70;11.37;;;;;;;1.55;100.00;101498.13;5031658;28;20210;-79
2023/01/27 00:34:00;;;;;;;31.20;11.93;;;;;;;1.57;100.00;101498.09;5031864;28;20217;-80
2023/01/27 00:36:27;;;;;;;29.53;11.73;;;;;;;1.56;100.00;101493.72;5032728;28;20280;-79
2023/01/27 00:38:54;;;;;;;35.27;12.53;;;;;;;1.56;100.00;101494.59;5032849;28;20278;-80
2023/01/27 00:41:21;;;;;;;33.37;12.97;;;;;;;1.57;100.00;101492.84;5032767;28;20833;-80
2023/01/27 00:43:51;;;;;;;39.60;12.87;;;;;;;1.57;100.00;101493.72;5033304;28;20202;-80
2023/01/27 00:46:19;;;;;;;47.27;15.20;;;;;;;1.58;100.00;101502.47;5032840;28;20233;-81
2023/01/27 00:48:46;;;;;;;42.40;14.60;;;;;;;1.59;100.00;101489.31;5032718;28;20202;-81
2023/01/27 00:51:13;;;;;;;46.50;14.40;;;;;;;1.60;100.00;101500.69;5032038;28;20209;-80
2023/01/27 00:53:40;;;;;;;40.77;13.40;;;;;;;1.61;100.00;101497.19;5032091;28;20222;-81
2023/01/27 00:56:07;;;;;;;38.77;14.40;;;;;;;1.62;100.00;101501.50;5031759;28;20238;-80
2023/01/27 00:58:34;;;;;;;43.70;14.40;;;;;;;1.64;100.00;101508.47;5031452;28;20214;-80
2023/01/27 01:01:04;;;;;;;56.70;17.57;;;;;;;1.63;100.00;101503.25;5031519;28;20202;-80
2023/01/27 01:03:33;;;;;;;40.17;14.43;;;;;;;1.64;100.00;101507.59;5031107;28;20194;-80
2023/01/27 01:06:01;;;;;;;46.67;15.03;;;;;;;1.64;100.00;101511.09;5031297;28;20594;-80
2023/01/27 01:08:29;;;;;;;36.20;14.00;;;;;;;1.65;100.00;101511.97;5031783;28;20570;-81
2023/01/27 01:10:56;;;;;;;41.13;13.87;;;;;;;1.65;100.00;101512.84;5031943;28;20206;-80
2023/01/27 01:13:22;;;;;;;45.03;14.83;;;;;;;1.67;100.00;101523.31;5031673;28;20217;-81
2023/01/27 01:15:48;;;;;;;49.90;15.77;;;;;;;1.67;100.00;101518.06;5031934;28;20232;-79
2023/01/27 01:18:16;;;;;;;43.60;14.40;;;;;;;1.68;100.00;101514.56;5031408;28;20563;-80
2023/01/27 01:20:46;;;;;;;39.27;14.17;;;;;;;1.69;100.00;101516.31;5034614;28;20704;-80
2023/01/27 01:23:13;;;;;;;47.67;16.03;;;;;;;1.69;100.00;101529.44;5035474;28;20305;-81
2023/01/27 01:25:41;;;;;;;49.17;14.67;;;;;;;1.70;100.00;101526.78;5035398;28;20225;-80
2023/01/27 01:28:09;;;;;;;46.37;14.63;;;;;;;1.71;100.00;101533.78;5035339;28;20586;-80
2023/01/27 01:30:36;;;;;;;45.33;14.67;;;;;;;1.71;100.00;101525.91;5034554;28;20214;-80
2023/01/27 01:33:03;;;;;;;47.10;15.00;;;;;;;1.72;100.00;101524.16;5034725;28;20213;-80
2023/01/27 01:35:31;;;;;;;45.73;15.10;;;;;;;1.72;100.00;101532.03;5034781;28;20198;-81
2023/01/27 01:37:57;;;;;;;41.60;14.20;;;;;;;1.73;100.00;101526.75;5034315;28;20207;-81
2023/01/27 01:40:25;;;;;;;48.63;14.73;;;;;;;1.74;100.00;101536.38;5034110;28;20284;-81
2023/01/27 01:42:56;;;;;;;43.80;14.13;;;;;;;1.75;100.00;101539.88;5034609;28;20206;-81
2023/01/27 01:45:47;;;;;;;47.17;14.80;;;;;;;1.73;100.00;101537.25;5034319;28;20202;-80
2023/01/27 01:48:17;;;;;;;36.10;13.77;;;;;;;1.76;100.00;101530.22;5033798;28;20650;-80
2023/01/27 01:50:50;;;;;;;47.73;14.83;;;;;;;1.76;100.00;101531.09;5034012;28;20225;-81
2023/01/27 01:53:17;;;;;;;32.67;14.63;;;;;;;1.77;100.00;101527.59;5033772;28;20202;-81
2023/01/27 01:55:43;;;;;;;44.47;13.67;;;;;;;1.78;100.00;101528.47;5034524;28;20572;-80
2023/01/27 01:58:12;;;;;;;33.27;12.10;;;;;;;1.79;100.00;101531.06;5034011;28;20202;-80
2023/01/27 02:00:39;;;;;;;35.47;13.63;;;;;;;1.79;100.00;101531.06;5034095;28;20256;-80
2023/01/27 02:03:06;;;;;;;38.30;12.97;;;;;;;1.81;100.00;101534.50;5034300;28;20253;-80
2023/01/27 02:05:36;;;;;;;34.87;13.20;;;;;;;1.81;100.00;101538.91;5034559;28;20202;-80
2023/01/27 02:08:09;;;;;;;31.77;12.43;;;;;;;1.81;100.00;101533.66;5034954;28;20203;-79
2023/01/27 02:10:36;;;;;;;35.43;12.83;;;;;;;1.81;100.00;101542.41;5034179;28;20186;-80
2023/01/27 02:13:02;;;;;;;29.83;12.40;;;;;;;1.83;100.00;101542.38;5033810;28;20730;-80
2023/01/27 02:15:29;;;;;;;30.83;12.10;;;;;;;1.84;100.00;101547.63;5034145;28;20226;-79
2023/01/27 02:17:56;;;;;;;31.00;13.47;;;;;;;1.84;100.00;101539.72;5033684;28;20210;-81
2023/01/27 02:20:48;;;;;;;31.63;11.87;;;;;;;1.85;100.00;101535.34;5034526;28;20705;-80
2023/01/27 02:23:33;;;;;;;27.73;11.80;;;;;;;1.86;100.00;101537.09;5034080;28;20210;-80
2023/01/27 02:26:05;;;;;;;31.23;11.57;;;;;;;1.87;100.00;101549.34;5032873;28;20237;-79
2023/01/27 02:28:32;;;;;;;29.20;10.63;;;;;;;1.87;100.00;101539.69;5033452;28;20191;-80
2023/01/27 02:30:58;;;;;;;32.87;11.60;;;;;;;1.89;100.00;101542.31;5031563;28;20682;-80
2023/01/27 02:33:25;;;;;;;32.70;11.83;;;;;;;1.88;100.00;101538.81;5033373;28;20217;-80
2023/01/27 02:35:58;;;;;;;28.57;11.57;;;;;;;1.88;100.00;101543.19;5033237;28;20233;-80
2023/01/27 02:38:28;;;;;;;30.33;11.80;;;;;;;1.88;100.00;101545.81;5033598;28;20197;-80
2023/01/27 02:40:59;;;;;;;21.07;11.03;;;;;;;1.87;100.00;101537.06;5033909;28;20210;-80
2023/01/27 02:43:27;;;;;;;27.80;10.37;;;;;;;1.87;100.00;101537.06;5033611;28;20191;-79
2023/01/27 02:45:53;;;;;;;26.43;11.47;;;;;;;1.89;100.00;101545.81;5033529;28;20230;-81
2023/01/27 02:48:20;;;;;;;34.07;11.87;;;;;;;1.90;100.00;101542.28;5033846;28;20202;-80
2023/01/27 02:50:46;;;;;;;30.07;10.93;;;;;;;1.90;100.00;101551.94;5033749;28;20210;-80
2023/01/27 02:53:13;;;;;;;26.80;11.77;;;;;;;1.88;100.00;101549.31;5034447;28;20210;-80
2023/01/27 02:55:39;;;;;;;25.17;10.80;;;;;;;1.90;100.00;101551.94;5033425;28;20238;-79
2023/01/27 02:58:06;;;;;;;27.63;11.87;;;;;;;1.91;100.00;101551.03;5034005;28;20217;-79
2023/01/27 03:00:34;;;;;;;27.77;10.53;;;;;;;1.93;100.00;101558.00;5033395;28;20206;-80
2023/01/27 03:03:01;;;;;;;26.03;11.90;;;;;;;1.91;100.00;101559.78;5033596;28;20206;-80
2023/01/27 03:05:27;;;;;;;29.00;12.23;;;;;;;1.92;100.00;101555.41;5033486;28;20211;-81
2023/01/27 03:07:54;;;;;;;26.07;10.60;;;;;;;1.92;100.00;101558.91;5033349;28;20210;-79
2023/01/27 03:10:20;;;;;;;22.60;10.90;;;;;;;1.91;100.00;101557.16;5032661;28;20697;-79
2023/01/27 03:12:46;;;;;;;27.70;11.13;;;;;;;1.93;100.00;101558.00;5033030;28;20213;-80
2023/01/27 03:18:15;;;;;;;31.17;12.20;;;;;;;1.96;100.00;101557.97;5032414;28;20189;-80
2023/01/27 03:20:44;;;;;;;28.60;11.60;;;;;;;1.96;100.00;101554.47;5032461;28;20194;-79
2023/01/27 03:23:11;;;;;;;29.17;11.53;;;;;;;1.97;100.00;101561.47;5032053;28;20217;-80
2023/01/27 03:25:41;;;;;;;25.97;11.10;;;;;;;1.97;100.00;101564.09;5032149;28;20233;-80
2023/01/27 03:28:07;;;;;;;22.40;10.47;;;;;;;1.97;100.00;101562.31;5032781;28;20210;-80
2023/01/27 03:30:34;;;;;;;24.77;11.83;;;;;;;1.99;100.00;101560.53;5032600;28;20293;-80
2023/01/27 03:33:02;;;;;;;23.33;11.73;;;;;;;2.01;100.00;101571.03;5032829;28;20737;-81
2023/01/27 03:35:37;;;;;;;30.97;11.40;;;;;;;2.02;100.00;101567.50;5032389;28;20320;-81
2023/01/27 03:46:18;;;;;;;23.77;10.97;;;;;;;2.04;100.00;101573.63;5032889;28;20229;-80
2023/01/27 03:48:44;;;;;;;22.40;10.97;;;;;;;2.06;100.00;101580.59;5033251;28;20256;-79
2023/01/27 03:51:32;;;;;;;26.33;11.13;;;;;;;2.06;100.00;101577.09;5033000;28;20202;-81
2023/01/27 03:53:59;;;;;;;26.10;11.07;;;;;;;2.06;100.00;101575.34;5033247;28;20588;-80
2023/01/27 03:56:26;;;;;;;26.50;10.83;;;;;;;2.09;100.00;101572.69;5032929;28;20902;-79
2023/01/27 03:58:52;;;;;;;23.97;11.23;;;;;;;2.10;100.00;101581.44;5032786;28;20214;-81
2023/01/27 04:01:20;;;;;;;19.17;10.97;;;;;;;2.11;100.00;101577.91;5032459;28;20210;-80
2023/01/27 04:06:55;;;;;;;22.57;10.50;;;;;;;2.13;100.00;101588.41;5032654;28;20244;-81
2023/01/27 04:09:24;;;;;;;20.20;9.70;;;;;;;2.13;100.00;101578.75;5032622;28;20747;-79
2023/01/27 04:11:57;;;;;;;21.87;10.30;;;;;;;2.14;100.00;101577.00;5032879;28;20384;-81
2023/01/27 04:14:26;;;;;;;27.27;10.93;;;;;;;2.14;100.00;101575.25;5032132;28;20214;-81
2023/01/27 04:16:54;;;;;;;22.03;10.50;;;;;;;2.14;100.00;101580.50;5031915;28;20237;-80
2023/01/27 04:19:21;;;;;;;17.97;9.77;;;;;;;2.15;100.00;101581.38;5032344;28;20225;-79
2023/01/27 04:21:49;;;;;;;24.53;9.80;;;;;;;2.15;100.00;101570.88;5032341;28;20206;-79
2023/01/27 04:24:21;;;;;;;28.73;9.70;;;;;;;2.17;100.00;101569.06;5032423;28;20203;-80
2023/01/27 04:26:48;;;;;;;22.83;9.87;;;;;;;2.17;100.00;101571.69;5032150;28;20233;-79
2023/01/27 04:29:15;;;;;;;22.83;10.57;;;;;;;2.18;100.00;101573.41;5032043;28;20202;-79
2023/01/27 04:31:42;;;;;;;19.30;10.10;;;;;;;2.19;100.00;101580.41;5032014;28;20217;-79
2023/01/27 04:34:10;;;;;;;21.30;9.30;;;;;;;2.18;100.00;101578.69;5032306;28;20218;-80
2023/01/27 04:36:37;;;;;;;23.60;11.03;;;;;;;2.17;100.00;101585.69;5032042;28;20229;-79
2023/01/27 04:39:05;;;;;;;21.13;10.67;;;;;;;2.19;100.00;101589.16;5032149;28;20217;-79
2023/01/27 04:41:31;;;;;;;22.07;10.53;;;;;;;2.18;100.00;101590.06;5032591;28;20217;-81
2023/01/27 04:43:57;;;;;;;24.87;10.27;;;;;;;2.18;100.00;101592.69;5031561;28;20209;-81
2023/01/27 04:46:24;;;;;;;18.97;9.40;;;;;;;2.19;100.00;101597.06;5032073;28;20590;-80
2023/01/27 04:48:50;;;;;;;18.33;9.37;;;;;;;2.20;100.00;101603.19;5031844;28;20210;-81
2023/01/27 04:51:17;;;;;;;23.93;10.50;;;;;;;2.21;100.00;101610.19;5032295;28;20205;-79
2023/01/27 04:53:43;;;;;;;24.97;9.60;;;;;;;2.20;100.00;101611.94;5031918;28;20202;-79
2023/01/27 04:56:29;;;;;;;20.27;9.17;;;;;;;2.20;100.00;101622.44;5034725;28;20241;-80
2023/01/27 04:58:59;;;;;;;23.87;9.40;;;;;;;2.22;100.00;101617.16;5035915;28;20202;-79
2023/01/27 05:01:25;;;;;;;16.57;9.13;;;;;;;2.22;100.00;101620.66;5034993;28;20206;-80
2023/01/27 05:03:52;;;;;;;24.23;9.43;;;;;;;2.24;100.00;101623.28;5035503;28;20658;-80
2023/01/27 05:06:18;;;;;;;18.77;9.23;;;;;;;2.25;100.00;101622.38;5034774;28;20963;-79
2023/01/27 05:08:45;;;;;;;19.67;10.13;;;;;;;2.24;100.00;101624.16;5035328;28;20681;-79
2023/01/27 05:11:12;;;;;;;19.07;9.70;;;;;;;2.25;100.00;101619.75;5035004;28;20213;-79
2023/01/27 05:13:40;;;;;;;25.20;9.73;;;;;;;2.26;100.00;101621.50;5035068;28;20214;-78
2023/01/27 05:16:10;;;;;;;21.00;9.13;;;;;;;2.27;100.00;101618.84;5034014;28;20242;-79
2023/01/27 05:18:37;;;;;;;25.83;10.00;;;;;;;2.27;100.00;101628.50;5034775;28;20649;-79
2023/01/27 05:21:05;;;;;;;15.63;9.53;;;;;;;2.27;100.00;101631.13;5034489;28;20202;-79
2023/01/27 05:23:37;;;;;;;19.50;8.90;;;;;;;2.26;100.00;101618.88;5031887;28;20202;-79
2023/01/27 05:26:08;;;;;;;22.67;10.10;;;;;;;2.27;100.00;101631.13;5030880;28;20222;-79
2023/01/27 05:28:35;;;;;;;16.93;8.80;;;;;;;2.27;100.00;101641.66;5032458;28;20667;-79
2023/01/27 05:31:05;;;;;;;18.87;8.60;;;;;;;2.29;100.00;101639.88;5031328;28;20225;-79
2023/01/27 05:33:32;;;;;;;17.17;8.97;;;;;;;2.29;100.00;101635.47;5034243;28;20593;-80
2023/01/27 05:36:00;;;;;;;17.30;9.20;;;;;;;2.29;100.00;101637.25;5032121;28;20729;-78
2023/01/27 05:38:26;;;;;;;21.57;9.20;;;;;;;2.31;100.00;101640.72;5030751;28;20234;-78
2023/01/27 05:40:56;;;;;;;17.23;7.67;;;;;;;2.32;100.00;101643.34;5030948;28;20225;-79
2023/01/27 05:43:22;;;;;;;14.73;7.20;;;;;;;2.33;100.00;101654.72;5035878;28;20248;-79
2023/01/27 05:45:49;;;;;;;14.40;6.50;;;;;;;2.33;100.00;101652.09;5038015;28;20221;-79
2023/01/27 05:48:16;;;;;;;9.60;6.13;;;;;;;2.35;100.00;101652.91;5035058;28;20836;-79
2023/01/27 05:50:43;;;;;;;12.13;6.63;;;;;;;2.36;100.00;101650.25;5033219;28;20206;-78
2023/01/27 05:53:09;;;;;;;10.00;5.37;;;;;;;2.38;100.00;101647.63;5032574;28;20564;-79
2023/01/27 05:55:36;;;;;;;9.83;5.57;;;;;;;2.40;100.00;101651.09;5037340;28;20729;-79
2023/01/27 05:58:02;;;;;;;12.27;6.60;;;;;;;2.41;100.00;101645.81;5030047;28;20210;-78
2023/01/27 06:00:29;;;;;;;10.70;5.60;;;;;;;2.43;100.00;101656.31;5031013;28;20210;-79
2023/01/27 06:02:55;;;;;;;8.30;5.47;;;;;;;2.44;100.00;101663.31;5029022;28;20195;-79
2023/01/27 06:05:23;;;;;;;10.30;5.10;;;;;;;2.43;100.00;101670.31;5034446;28;20206;-79
2023/01/27 06:07:49;;;;;;;11.47;6.17;;;;;;;2.46;100.00;101663.28;5033926;28;20272;-79
2023/01/27 06:10:16;;;;;;;7.60;5.13;;;;;;;2.47;100.00;101668.53;5030401;28;20718;-79
2023/01/27 06:12:43;;;;;;;13.50;5.90;;;;;;;2.50;100.00;101670.25;5038848;28;20205;-78
2023/01/27 06:15:10;;;;;;;7.77;5.07;;;;;;;2.50;100.00;101673.75;5035920;28;20226;-79
2023/01/27 06:17:37;;;;;;;7.63;4.87;;;;;;;2.52;100.00;101676.34;5026875;28;20226;-79
2023/01/27 06:20:03;;;;;;;7.57;5.00;;;;;;;2.52;100.00;101671.94;5028582;28;20210;-79
2023/01/27 06:22:31;;;;;;;8.70;5.27;;;;;;;2.53;100.00;101673.69;5029594;28;20256;-79
2023/01/27 06:24:58;;;;;;;10.23;5.33;;;;;;;2.53;100.00;101678.94;5029404;28;20210;-80
2023/01/27 06:27:24;;;;;;;5.83;4.23;;;;;;;2.54;100.00;101680.69;5028652;28;20587;-80
2023/01/27 06:29:51;;;;;;;7.03;4.70;;;;;;;2.56;100.00;101673.66;5026038;28;20214;-80
2023/01/27 06:32:17;;;;;;;10.20;4.70;;;;;;;2.57;100.00;101674.53;5024677;28;20233;-80
2023/01/27 06:34:44;;;;;;;9.37;4.63;;;;;;;2.58;100.00;101689.41;5028795;28;20198;-79
2023/01/27 06:37:10;;;;;;;8.93;4.73;;;;;;;2.59;100.00;101691.16;5031608;28;20227;-80
2023/01/27 06:39:38;;;;;;;6.73;4.13;;;;;;;2.60;100.00;101690.25;5033166;28;20202;-80
2023/01/27 06:42:06;;;;;;;6.30;3.57;;;;;;;2.61;100.00;101697.25;5031384;28;20199;-79
2023/01/27 06:44:32;;;;;;;6.20;3.50;;;;;;;2.62;100.00;101688.47;5031821;28;20198;-80
2023/01/27 06:46:59;;;;;;;6.30;2.97;;;;;;;2.64;100.00;101689.34;5031523;28;20222;-80
2023/01/27 06:49:25;;;;;;;4.87;2.97;;;;;;;2.62;100.00;101678.84;5032266;28;20213;-80
2023/01/27 06:51:52;;;;;;;5.10;3.20;;;;;;;2.65;100.00;101685.81;5032991;28;20206;-79
2023/01/27 06:54:18;;;;;;;5.00;3.63;;;;;;;2.64;100.00;101687.56;5030993;28;20209;-79
2023/01/27 06:56:46;;;;;;;5.30;3.00;;;;;;;2.65;100.00;101684.06;5031035;28;20705;-79
2023/01/27 06:59:13;;;;;;;4.83;3.60;;;;;;;2.65;100.00;101696.34;5031100;28;20205;-79
2023/01/27 07:01:39;;;;;;;5.87;3.80;;;;;;;2.65;100.00;101694.56;5025955;28;20430;-81
2023/01/27 07:04:06;;;;;;;8.53;4.37;;;;;;;2.66;100.00;101691.06;5028248;28;20217;-80
2023/01/27 07:06:33;;;;;;;5.27;3.63;;;;;;;2.68;100.00;101701.56;5031740;28;20242;-80
2023/01/27 07:08:59;;;;;;;5.53;3.37;;;;;;;2.67;100.00;101698.06;5031540;28;20213;-80
2023/01/27 07:11:25;;;;;;;4.87;3.27;;;;;;;2.67;100.00;101705.94;5025657;28;20202;-80
2023/01/27 07:13:54;;;;;;;4.33;2.60;;;;;;;2.69;100.00;101709.41;5030364;28;20215;-80
2023/01/27 07:16:20;;;;;;;3.57;2.10;;;;;;;2.69;100.00;101712.03;5024514;28;20329;-80
2023/01/27 07:18:47;;;;;;;5.20;2.70;;;;;;;2.69;100.00;101703.25;5028198;28;20198;-80
2023/01/27 07:21:13;;;;;;;1.97;1.63;;;;;;;2.71;100.00;101717.28;5030443;28;20209;-80
2023/01/27 07:23:40;;;;;;;3.43;1.90;;;;;;;2.71;100.00;101715.50;5030926;28;20198;-80
2023/01/27 07:26:06;;;;;;;3.80;2.00;;;;;;;2.71;100.00;101718.13;5030617;28;20596;-80
2023/01/27 07:28:33;;;;;;;3.07;1.80;;;;;;;2.70;100.00;101721.66;5031790;28;20224;-80
2023/01/27 07:31:02;;;;;;;3.77;1.97;;;;;;;2.73;100.00;101728.63;5032230;28;20214;-79
2023/01/27 07:33:28;;;;;;;1.47;1.17;;;;;;;2.72;100.00;101716.38;5032695;28;20205;-80
2023/01/27 07:35:55;;;;;;;1.53;1.03;;;;;;;2.74;100.00;101733.00;5031859;28;20240;-81
2023/01/27 07:38:21;;;;;;;2.33;1.60;;;;;;;2.75;100.00;101726.88;5030360;28;20206;-80
2023/01/27 07:40:48;;;;;;;1.60;1.07;;;;;;;2.75;100.00;101740.00;5030034;28;20213;-80
2023/01/27 07:43:14;;;;;;;1.93;1.40;;;;;;;2.74;100.00;101736.50;5024726;28;20209;-80
2023/01/27 07:45:41;;;;;;;2.57;1.63;;;;;;;2.76;100.00;101744.38;5030623;28;20218;-80
2023/01/27 07:48:10;;;;;;;2.77;1.30;;;;;;;2.76;100.00;101744.38;5026559;28;20233;-80
2023/01/27 07:50:39;;;;;;;3.37;1.93;;;;;;;2.77;100.00;101744.38;5029010;28;20287;-80
2023/01/27 07:53:06;;;;;;;1.83;1.50;;;;;;;2.77;100.00;101752.25;5031214;28;20210;-80
2023/01/27 07:55:33;;;;;;;2.27;1.63;;;;;;;2.76;100.00;101754.91;5032821;28;20233;-80
2023/01/27 07:57:59;;;;;;;1.83;1.27;;;;;;;2.77;100.00;101756.66;5032204;28;20213;-81
2023/01/27 08:00:27;;;;;;;3.03;1.60;;;;;;;2.76;100.00;101749.66;5031061;28;20229;-80
2023/01/27 08:02:54;;;;;;;1.87;1.40;;;;;;;2.76;100.00;101757.53;5031937;28;20866;-80
2023/01/27 08:05:22;;;;;;;2.00;1.80;;;;;;;2.76;100.00;101762.81;5030220;28;20211;-79
2023/01/27 08:07:49;;;;;;;1.53;1.30;;;;;;;2.76;100.00;101760.16;5031660;28;20251;-79
2023/01/27 08:10:16;;;;;;;3.00;1.57;;;;;;;2.75;100.00;101763.69;5031878;28;21017;-80
2023/01/27 08:12:43;;;;;;;3.03;1.40;;;;;;;2.75;100.00;101775.09;5031752;28;20221;-80
2023/01/27 08:15:10;;;;;;;2.23;1.47;;;;;;;2.76;100.00;101778.59;5030832;28;20213;-80
2023/01/27 08:17:36;;;;;;;2.23;1.53;;;;;;;2.76;100.00;101784.72;5031716;28;20859;-80
2023/01/27 08:20:04;;;;;;;4.63;1.63;;;;;;;2.74;100.00;101778.59;5029957;28;20202;-80
2023/01/27 08:22:32;;;;;;;3.40;1.90;;;;;;;2.73;100.00;101786.50;5030937;28;20206;-80
2023/01/27 08:24:58;;;;;;;2.07;1.50;;;;;;;2.74;100.00;101785.63;5029592;28;20240;-80
2023/01/27 08:27:25;;;;;;;1.57;1.30;;;;;;;2.73;100.00;101790.00;5031533;28;20225;-81
2023/01/27 08:29:51;;;;;;;2.87;1.63;;;;;;;2.74;100.00;101794.38;5030093;28;20214;-80
2023/01/27 08:32:18;;;;;;;3.87;1.53;;;;;;;2.74;100.00;101790.88;5023582;28;20241;-80
2023/01/27 08:34:44;;;;;;;4.40;2.00;;;;;;;2.74;100.00;101791.75;5029044;28;20655;-80
2023/01/27 08:37:11;;;;;;;2.33;1.87;;;;;;;2.75;100.00;101797.88;5029367;28;20230;-80
2023/01/27 08:39:39;;;;;;;2.53;1.90;;;;;;;2.75;100.00;101800.53;5030321;28;20213;-81
2023/01/27 08:42:06;;;;;;;3.67;1.70;;;;;;;2.75;100.00;101806.66;5030175;28;20217;-82
2023/01/27 08:44:32;;;;;;;3.20;1.30;;;;;;;2.77;100.00;101801.38;5029316;28;20202;-80
2023/01/27 08:46:59;;;;;;;3.07;1.50;;;;;;;2.78;100.00;101801.34;5029339;28;20600;-80
2023/01/27 08:49:25;;;;;;;6.03;1.80;;;;;;;2.78;100.00;101803.97;5031288;28;20254;-80
2023/01/27 08:51:52;;;;;;;3.50;1.47;;;;;;;2.81;100.00;101807.47;5031177;28;20202;-80
2023/01/27 08:54:18;;;;;;;4.83;1.40;;;;;;;2.82;100.00;101806.59;5032929;28;20214;-79
2023/01/27 08:56:46;;;;;;;1.30;1.07;;;;;;;2.83;100.00;101813.59;5029874;28;20237;-80
2023/01/27 08:59:13;;;;;;;2.40;1.00;;;;;;;2.83;100.00;101818.84;5030126;28;20206;-80
2023/01/27 09:01:40;;;;;;;2.47;1.30;;;;;;;2.84;100.00;101821.47;5030358;28;20202;-79
2023/01/27 09:04:07;;;;;;;2.40;1.10;;;;;;;2.84;100.00;101836.38;5030633;28;20312;-79
2023/01/27 09:06:33;;;;;;;1.30;1.07;;;;;;;2.84;100.00;101831.13;5029086;28;20222;-81
2023/01/27 09:09:08;;;;;;;3.20;1.23;;;;;;;2.82;100.00;101831.13;5028133;28;20207;-80
2023/01/27 09:11:36;;;;;;;1.83;0.93;;;;;;;2.83;100.00;101835.50;5031850;28;20653;-80
2023/01/27 09:14:04;;;;;;;1.03;0.90;;;;;;;2.83;100.00;101834.63;5028027;28;20209;-80
2023/01/27 09:16:31;;;;;;;1.20;0.90;;;;;;;2.84;100.00;101841.63;5032067;28;20225;-79
2023/01/27 09:18:57;;;;;;;1.07;0.90;;;;;;;2.83;100.00;101839.91;5031726;28;20210;-80
2023/01/27 09:21:24;;;;;;;2.13;1.00;;;;;;;2.84;100.00;101841.63;5030504;28;20214;-79
2023/01/27 09:23:51;;;;;;;1.20;0.83;;;;;;;2.84;100.00;101850.41;5027482;28;20383;-80
2023/01/27 09:26:18;;;;;;;1.80;1.00;;;;;;;2.85;100.00;101848.66;5031939;28;20222;-79
2023/01/27 09:28:44;;;;;;;2.67;0.80;;;;;;;2.85;100.00;101856.53;5033682;28;20206;-79
2023/01/27 09:31:12;;;;;;;1.83;1.00;;;;;;;2.86;100.00;101850.38;5033818;28;20230;-81
2023/01/27 09:33:38;;;;;;;2.20;0.80;;;;;;;2.85;100.00;101859.16;5034432;28;20667;-80
2023/01/27 09:36:10;;;;;;;2.03;1.00;;;;;;;2.85;100.00;101852.16;5032081;28;20706;-80
2023/01/27 09:38:41;;;;;;;1.77;0.77;;;;;;;2.85;100.00;101860.03;5031974;28;20204;-80
2023/01/27 09:41:34;;;;;;;1.70;0.67;;;;;;;2.84;100.00;101853.03;5035904;28;20210;-80
2023/01/27 09:44:14;;;;;;;1.30;0.70;;;;;;;2.87;100.00;101865.25;5028876;28;20622;-79
2023/01/27 09:47:05;;;;;;;2.50;1.00;;;;;;;2.88;100.00;101867.00;5036292;28;20614;-80
2023/01/27 09:49:46;;;;;;;2.07;0.80;;;;;;;2.88;100.00;101864.38;5033088;28;20203;-80
2023/01/27 09:52:31;;;;;;;3.00;1.00;;;;;;;2.89;100.00;101864.34;5037216;28;20203;-79
2023/01/27 09:55:03;;;;;;;1.60;0.80;;;;;;;2.90;100.00;101865.22;5035883;28;20214;-81
2023/01/27 09:57:41;;;;;;;2.13;0.97;;;;;;;2.89;100.00;101866.97;5035702;28;20686;-79
2023/01/27 10:00:21;;;;;;;1.53;0.80;;;;;;;2.90;100.00;101862.59;5035101;28;20209;-80
2023/01/27 10:06:31;;;;;;;2.63;0.97;;;;;;;2.91;100.00;101859.94;5038202;28;20288;-81
2023/01/27 10:09:15;;;;;;;1.83;1.23;;;;;;;2.93;100.00;101852.91;5045655;28;20205;-81
2023/01/27 10:11:52;;;;;;;1.17;0.73;;;;;;;2.94;100.00;101851.13;5042723;28;20202;-81
2023/01/27 10:14:30;;;;;;;2.67;1.20;;;;;;;2.96;100.00;101852.88;5035552;28;20210;-80
2023/01/27 10:17:24;;;;;;;3.20;1.10;;;;;;;2.97;100.00;101849.34;5039758;28;20229;-81
2023/01/27 10:20:04;;;;;;;2.13;1.10;;;;;;;2.99;100.00;101854.59;5042090;28;20206;-81
2023/01/27 10:22:40;;;;;;;3.17;1.13;;;;;;;3.00;100.00;101856.34;5034196;28;20206;-81
2023/01/27 10:25:21;;;;;;;3.30;1.30;;;;;;;3.01;100.00;101861.59;5033305;28;20206;-81
2023/01/27 10:27:49;;;;;;;3.27;1.20;;;;;;;3.02;100.00;101860.69;5033897;28;20253;-80
2023/01/27 10:30:23;;;;;;;1.23;0.90;;;;;;;3.06;100.00;101864.13;5033787;28;20219;-80
2023/01/27 10:33:00;;;;;;;1.60;1.20;;;;;;;3.07;100.00;101860.63;5039942;28;20202;-79
2023/01/27 10:35:32;;;;;;;2.57;0.90;;;;;;;3.08;100.00;101851.81;5035281;28;20207;-81
2023/01/27 10:38:09;;;;;;;3.33;1.00;;;;;;;3.08;100.00;101852.69;5033457;28;20222;-80
2023/01/27 10:40:42;;;;;;;2.90;1.40;;;;;;;3.10;100.00;101850.06;5034943;28;20676;-80
2023/01/27 10:43:16;;;;;;;2.27;0.80;;;;;;;3.12;100.00;101840.38;5036757;28;20210;-81
2023/01/27 10:45:50;;;;;;;1.33;0.80;;;;;;;3.14;100.00;101850.00;5032546;28;20222;-80
2023/01/27 10:48:27;;;;;;;3.37;1.00;;;;;;;3.16;100.00;101849.09;5040795;28;20212;-80
2023/01/27 10:51:00;;;;;;;3.10;1.00;;;;;;;3.16;100.00;101857.88;5039321;28;20209;-82
2023/01/27 10:53:34;;;;;;;2.30;1.30;;;;;;;3.16;100.00;101857.00;5032690;28;20260;-81
2023/01/27 10:56:07;;;;;;;3.43;1.33;;;;;;;3.18;100.00;101861.34;5035390;28;20226;-79
2023/01/27 10:58:54;;;;;;;4.70;1.23;;;;;;;3.17;100.00;101854.34;5040839;28;20206;-80
2023/01/27 11:01:30;;;;;;;5.30;1.17;;;;;;;3.16;100.00;101844.72;5032942;28;20202;-81
2023/01/27 11:04:04;;;;;;;1.47;0.90;;;;;;;3.16;100.00;101855.25;5035914;28;20332;-81
2023/01/27 11:06:36;;;;;;;1.40;0.77;;;;;;;3.18;100.00;101852.59;5034721;28;20477;-81
2023/01/27 11:09:13;;;;;;;3.13;0.70;;;;;;;3.17;100.00;101854.34;5032649;28;20214;-80
2023/01/27 11:11:44;;;;;;;2.10;0.90;;;;;;;3.16;100.00;101844.72;5029973;28;20284;-81
2023/01/27 11:14:16;;;;;;;0.87;0.80;;;;;;;3.18;100.00;101853.47;5032623;28;20210;-80
2023/01/27 11:16:51;;;;;;;2.77;0.80;;;;;;;3.18;100.00;101842.94;5030620;28;20234;-77
2023/01/27 11:19:27;;;;;;;2.20;1.07;;;;;;;3.20;100.00;101845.53;5035113;28;20201;-79
2023/01/27 11:21:58;;;;;;;2.43;1.13;;;;;;;3.21;100.00;101852.56;5028439;28;20213;-79
2023/01/27 11:24:40;;;;;;;2.83;1.00;;;;;;;3.21;100.00;101853.44;5030581;28;20209;-78
2023/01/27 11:27:14;;;;;;;1.43;0.80;;;;;;;3.21;100.00;101863.97;5028430;28;20234;-79
2023/01/27 11:29:47;;;;;;;1.27;0.80;;;;;;;3.18;100.00;101853.47;5030780;28;20678;-79
2023/01/27 11:32:23;;;;;;;1.90;0.83;;;;;;;3.20;100.00;101856.94;5032914;28;20209;-79
2023/01/27 11:34:59;;;;;;;1.77;0.60;;;;;;;3.20;100.00;101856.06;5038222;28;20205;-81
2023/01/27 11:37:32;;;;;;;1.97;0.40;;;;;;;3.16;100.00;101857.88;5028723;28;20336;-78
2023/01/27 11:39:58;;;;;;;1.00;0.60;;;;;;;3.12;100.00;101866.69;5033913;28;20217;-79
2023/01/27 11:42:31;;;;;;;0.70;0.50;;;;;;;3.08;100.00;101857.97;5035964;28;20205;-79
2023/01/27 11:44:59;;;;;;;3.10;0.80;;;;;;;3.09;100.00;101858.84;5032027;28;20210;-80
2023/01/27 11:47:29;;;;;;;2.30;0.83;;;;;;;3.10;100.00;101865.84;5035091;28;20218;-79
2023/01/27 11:49:57;;;;;;;1.10;0.60;;;;;;;3.08;100.00;101863.22;5033498;28;20869;-80
2023/01/27 11:52:25;;;;;;;1.83;0.70;;;;;;;3.08;100.00;101859.72;5031849;28;20209;-79
2023/01/27 11:54:59;;;;;;;3.37;0.70;;;;;;;3.10;100.00;101865.84;5031976;28;20198;-77
2023/01/27 11:57:28;;;;;;;1.43;0.77;;;;;;;3.09;100.00;101859.69;5027441;28;20717;-79